Time;durP1;ratioP1;P1;durP2;ratioP2;P2;SDS_P1;SDS_P2;PMS_P1;PMS_P2;Temp;Humidity;BMP_temperature;BMP_pressure;BME280_temperature;BME280_humidity;BME280_pressure;Samples;Min_cycle;Max_cycle;Signal;HPM_P1;HPM_P2
2022/01/06 00:01:07;;;;;;;5.10;3.85;;;1.20;99.90;;;;;;5051796;28;20045;-75
2022/01/06 00:03:35;;;;;;;6.63;4.60;;;1.20;99.90;;;;;;5052681;28;20052;-75
2022/01/06 00:06:06;;;;;;;6.15;3.83;;;1.20;99.90;;;;;;5053539;28;20069;-75
2022/01/06 00:08:35;;;;;;;4.50;4.10;;;1.30;99.90;;;;;;5053008;28;20557;-76
2022/01/06 00:11:05;;;;;;;4.55;4.15;;;1.30;99.90;;;;;;5051588;28;20041;-75
2022/01/06 00:13:43;;;;;;;8.18;4.60;;;1.30;99.90;;;;;;5053632;28;20075;-76
2022/01/06 00:16:23;;;;;;;4.80;4.38;;;1.30;99.90;;;;;;5067198;28;20049;-76
2022/01/06 00:24:24;;;;;;;5.20;4.72;;;1.30;99.90;;;;;;5053630;28;20421;-76
2022/01/06 00:26:52;;;;;;;5.93;5.43;;;1.30;99.90;;;;;;5051186;28;20053;-76
2022/01/06 00:29:20;;;;;;;9.27;5.88;;;1.40;99.90;;;;;;5050265;28;20505;-75
2022/01/06 00:31:50;;;;;;;7.00;6.30;;;1.40;99.90;;;;;;5053283;28;20053;-75
2022/01/06 00:34:18;;;;;;;7.82;6.47;;;1.40;99.90;;;;;;5084308;28;20064;-75
2022/01/06 00:36:45;;;;;;;9.40;6.68;;;1.40;99.90;;;;;;5085704;28;20068;-76
2022/01/06 00:39:13;;;;;;;9.23;6.88;;;1.40;99.90;;;;;;5049618;28;20045;-76
2022/01/06 00:41:41;;;;;;;7.53;6.45;;;1.40;99.90;;;;;;5052748;28;20055;-75
2022/01/06 00:44:09;;;;;;;10.05;7.55;;;1.40;99.90;;;;;;5066380;28;20096;-76
2022/01/06 00:46:37;;;;;;;9.45;7.35;;;1.40;99.90;;;;;;5049240;28;20119;-75
2022/01/06 00:49:06;;;;;;;8.55;7.60;;;1.40;99.90;;;;;;5051275;28;20041;-76
2022/01/06 00:51:34;;;;;;;9.95;7.97;;;1.40;99.90;;;;;;5073378;28;20045;-76
2022/01/06 00:54:01;;;;;;;10.23;8.02;;;1.40;99.90;;;;;;5084041;28;20459;-75
2022/01/06 00:56:28;;;;;;;12.75;8.35;;;1.40;99.90;;;;;;5050292;28;20114;-75
2022/01/06 00:58:56;;;;;;;12.70;8.27;;;1.40;99.90;;;;;;5053115;28;20135;-75
2022/01/06 01:01:24;;;;;;;9.70;8.70;;;1.40;99.90;;;;;;5049929;28;20099;-75
2022/01/06 01:03:51;;;;;;;10.77;8.68;;;1.40;99.90;;;;;;5053008;28;20067;-75
2022/01/06 01:06:20;;;;;;;10.80;8.70;;;1.40;99.90;;;;;;5049384;28;20052;-75
2022/01/06 01:08:47;;;;;;;12.43;9.35;;;1.40;99.90;;;;;;5052654;28;20063;-75
2022/01/06 01:11:15;;;;;;;11.55;9.68;;;1.40;99.90;;;;;;5050539;28;20040;-75
2022/01/06 01:13:54;;;;;;;13.10;9.65;;;1.40;99.90;;;;;;5052605;28;20517;-75
2022/01/06 01:16:27;;;;;;;12.82;10.00;;;1.40;99.90;;;;;;5043680;28;20049;-75
2022/01/06 01:18:56;;;;;;;14.05;10.93;;;1.40;99.90;;;;;;5052735;28;20057;-75
2022/01/06 01:21:27;;;;;;;13.10;9.90;;;1.40;99.90;;;;;;5051690;28;20402;-75
2022/01/06 01:23:55;;;;;;;14.30;10.23;;;1.40;99.90;;;;;;5050540;28;20075;-76
2022/01/06 01:26:23;;;;;;;11.55;9.95;;;1.40;99.90;;;;;;5052166;28;20049;-75
2022/01/06 01:28:51;;;;;;;14.48;10.88;;;1.40;99.90;;;;;;5051248;28;20051;-75
2022/01/06 01:31:26;;;;;;;17.50;10.45;;;1.40;99.90;;;;;;5051876;28;20049;-75
2022/01/06 01:33:57;;;;;;;19.27;11.30;;;1.40;99.90;;;;;;5048566;28;20053;-75
2022/01/06 01:36:26;;;;;;;16.55;11.30;;;1.40;99.90;;;;;;5047258;28;20049;-75
2022/01/06 01:38:54;;;;;;;16.00;11.38;;;1.40;99.90;;;;;;5050222;28;20458;-75
2022/01/06 01:41:22;;;;;;;17.08;11.48;;;1.40;99.90;;;;;;5051688;28;20053;-76
2022/01/06 01:43:50;;;;;;;18.15;11.80;;;1.40;99.90;;;;;;5049768;28;20056;-75
2022/01/06 01:46:20;;;;;;;15.82;12.15;;;1.40;99.90;;;;;;5052265;28;20052;-75
2022/01/06 01:48:57;;;;;;;16.13;12.20;;;1.40;99.90;;;;;;5050960;28;20468;-75
2022/01/06 01:51:26;;;;;;;16.70;12.05;;;1.40;99.90;;;;;;5049103;28;20159;-75
2022/01/06 01:53:53;;;;;;;15.95;11.80;;;1.40;99.90;;;;;;5051202;28;20049;-76
2022/01/06 01:56:21;;;;;;;15.68;12.50;;;1.50;99.90;;;;;;5050941;28;20126;-76
2022/01/06 01:58:49;;;;;;;19.65;12.07;;;1.50;99.90;;;;;;5051412;28;20053;-76
2022/01/06 02:01:16;;;;;;;19.23;12.05;;;1.50;99.90;;;;;;5048621;28;20133;-76
2022/01/06 02:03:43;;;;;;;15.40;12.00;;;1.40;99.90;;;;;;5032989;28;20093;-75
2022/01/06 02:06:10;;;;;;;16.85;10.73;;;1.40;99.90;;;;;;5048509;28;20055;-75
2022/01/06 02:08:39;;;;;;;13.77;11.23;;;1.40;99.90;;;;;;5063208;28;20521;-76
2022/01/06 02:11:07;;;;;;;19.95;11.00;;;1.40;99.90;;;;;;5047303;28;20055;-75
2022/01/06 02:13:45;;;;;;;17.85;11.75;;;1.40;99.90;;;;;;5050065;28;20471;-76
2022/01/06 02:16:13;;;;;;;17.15;11.50;;;1.30;99.90;;;;;;5050798;28;20517;-75
2022/01/06 02:18:40;;;;;;;15.35;11.25;;;1.30;99.90;;;;;;5083150;28;20058;-75
2022/01/06 02:21:09;;;;;;;14.95;11.95;;;1.30;99.90;;;;;;5049810;28;20203;-76
2022/01/06 02:23:38;;;;;;;17.40;12.50;;;1.30;99.90;;;;;;5049904;28;20052;-76
2022/01/06 02:26:05;;;;;;;15.80;12.30;;;1.30;99.90;;;;;;5049291;28;20140;-76
2022/01/06 02:28:32;;;;;;;15.65;11.30;;;1.30;99.90;;;;;;5049922;28;20068;-76
2022/01/06 02:31:00;;;;;;;15.65;11.85;;;1.30;99.90;;;;;;5049222;28;20045;-74
2022/01/06 02:33:28;;;;;;;13.50;10.45;;;1.30;99.90;;;;;;5065873;28;20049;-75
2022/01/06 02:35:56;;;;;;;12.15;10.05;;;1.30;99.90;;;;;;5032350;28;20135;-75
2022/01/06 02:38:25;;;;;;;15.70;10.57;;;1.30;99.90;;;;;;5049481;28;20044;-75
2022/01/06 02:40:53;;;;;;;16.60;11.88;;;1.30;99.90;;;;;;5049983;28;20143;-75
2022/01/06 02:43:24;;;;;;;16.73;12.05;;;1.30;99.90;;;;;;5049321;28;20579;-75
2022/01/06 02:45:52;;;;;;;14.27;11.63;;;1.30;99.90;;;;;;5050544;28;20053;-75
2022/01/06 02:48:19;;;;;;;17.02;11.90;;;1.30;99.90;;;;;;5048114;28;20048;-75
2022/01/06 02:50:49;;;;;;;17.38;11.68;;;1.30;99.90;;;;;;5048509;28;20072;-75
2022/01/06 02:53:19;;;;;;;17.85;11.98;;;1.30;99.90;;;;;;5063035;28;20053;-75
2022/01/06 02:55:53;;;;;;;22.10;12.45;;;1.40;99.90;;;;;;5046508;28;20085;-75
2022/01/06 02:58:22;;;;;;;17.80;13.38;;;1.40;99.90;;;;;;5061371;28;20409;-75
2022/01/06 03:00:50;;;;;;;15.18;11.65;;;1.30;99.90;;;;;;5045630;28;20061;-76
2022/01/06 03:03:18;;;;;;;17.05;11.65;;;1.30;99.90;;;;;;5050423;28;20049;-75
2022/01/06 03:05:45;;;;;;;16.83;11.85;;;1.30;99.90;;;;;;5048413;28;20052;-75
2022/01/06 03:08:13;;;;;;;17.10;11.07;;;1.40;99.90;;;;;;5047803;28;20409;-75
2022/01/06 03:10:43;;;;;;;19.52;11.68;;;1.30;99.90;;;;;;5050649;28;20399;-75
2022/01/06 03:13:12;;;;;;;16.95;10.55;;;1.30;99.90;;;;;;5049379;28;20513;-75
2022/01/06 03:15:40;;;;;;;18.08;10.50;;;1.30;99.90;;;;;;5036785;28;20048;-75
2022/01/06 03:18:07;;;;;;;15.68;9.95;;;1.30;99.90;;;;;;5049094;28;20077;-75
2022/01/06 03:20:35;;;;;;;16.58;9.90;;;1.30;99.90;;;;;;5049325;28;20049;-75
2022/01/06 03:23:02;;;;;;;13.15;9.98;;;1.40;99.90;;;;;;5050062;28;20037;-75
2022/01/06 03:25:29;;;;;;;13.75;9.95;;;1.30;99.90;;;;;;5043851;28;20140;-76
2022/01/06 03:27:57;;;;;;;12.45;9.63;;;1.30;99.90;;;;;;5045907;28;20057;-75
2022/01/06 03:30:25;;;;;;;14.27;9.40;;;1.30;99.90;;;;;;5049266;28;20071;-75
2022/01/06 03:32:53;;;;;;;13.40;9.80;;;1.30;99.90;;;;;;5050428;28;20473;-75
2022/01/06 03:35:24;;;;;;;13.95;8.88;;;1.30;99.90;;;;;;5060227;28;20056;-74
2022/01/06 03:37:52;;;;;;;12.00;8.55;;;1.20;99.90;;;;;;5049854;28;20047;-75
2022/01/06 03:40:19;;;;;;;15.23;10.00;;;1.30;99.90;;;;;;5048755;28;20073;-75
2022/01/06 03:42:47;;;;;;;13.48;8.48;;;1.30;99.90;;;;;;5049083;28;20128;-75
2022/01/06 03:45:18;;;;;;;12.60;9.48;;;1.30;99.90;;;;;;5048684;28;20517;-75
2022/01/06 03:47:47;;;;;;;15.13;9.30;;;1.30;99.90;;;;;;5046782;28;20049;-76
2022/01/06 03:50:17;;;;;;;12.27;8.52;;;1.30;99.90;;;;;;5082235;28;20045;-75
2022/01/06 03:52:45;;;;;;;15.02;9.60;;;1.30;99.90;;;;;;5048465;28;20136;-75
2022/01/06 03:55:15;;;;;;;14.80;10.13;;;1.30;99.90;;;;;;5049188;28;20412;-75
2022/01/06 03:57:43;;;;;;;14.80;8.80;;;1.30;99.90;;;;;;5050862;28;20056;-76
2022/01/06 04:00:14;;;;;;;14.45;8.20;;;1.30;99.90;;;;;;5068786;28;20044;-75
2022/01/06 04:02:43;;;;;;;14.23;8.60;;;1.30;99.90;;;;;;5050790;28;20052;-75
2022/01/06 04:05:13;;;;;;;14.70;8.77;;;1.30;99.90;;;;;;5053235;28;20059;-75
2022/01/06 04:07:41;;;;;;;10.63;7.88;;;1.30;99.90;;;;;;5053740;28;20103;-75
2022/01/06 04:10:11;;;;;;;16.25;8.80;;;1.30;99.90;;;;;;5052818;28;20045;-76
2022/01/06 04:12:39;;;;;;;10.80;8.20;;;1.30;99.90;;;;;;5051064;28;20057;-75
2022/01/06 04:15:11;;;;;;;13.43;8.27;;;1.30;99.90;;;;;;5052205;28;20084;-75
2022/01/06 04:17:40;;;;;;;9.55;7.53;;;1.20;99.90;;;;;;5052736;28;20584;-76
2022/01/06 04:20:09;;;;;;;13.43;8.18;;;1.20;99.90;;;;;;5051578;28;20045;-77
2022/01/06 04:22:38;;;;;;;12.77;7.72;;;1.20;99.90;;;;;;5052105;28;20417;-76
2022/01/06 04:25:07;;;;;;;12.10;7.82;;;1.20;99.90;;;;;;5053416;28;20048;-76
2022/01/06 04:27:35;;;;;;;17.90;9.25;;;1.20;99.90;;;;;;5037542;28;20405;-76
2022/01/06 04:30:03;;;;;;;10.93;7.47;;;1.20;99.90;;;;;;5049900;28;20037;-76
2022/01/06 04:32:30;;;;;;;10.40;7.15;;;1.30;99.90;;;;;;5053398;28;20497;-76
2022/01/06 04:34:58;;;;;;;11.18;7.15;;;1.20;99.90;;;;;;5050788;28;20339;-76
2022/01/06 04:37:27;;;;;;;10.32;7.25;;;1.20;99.90;;;;;;5035513;28;20425;-76
2022/01/06 04:39:58;;;;;;;11.77;6.53;;;1.20;99.90;;;;;;5051164;28;20052;-76
2022/01/06 04:42:29;;;;;;;12.30;6.53;;;1.20;99.90;;;;;;5053491;28;20056;-77
2022/01/06 04:44:56;;;;;;;10.98;6.40;;;1.20;99.90;;;;;;5085585;28;20525;-74
2022/01/06 04:47:24;;;;;;;9.05;5.22;;;1.10;99.90;;;;;;5051980;28;20087;-80
2022/01/06 04:49:52;;;;;;;8.98;5.35;;;1.10;99.90;;;;;;5050438;28;20045;-80
2022/01/06 04:52:19;;;;;;;10.63;6.50;;;1.10;99.90;;;;;;5052202;28;20053;-80
2022/01/06 04:54:47;;;;;;;8.45;5.45;;;1.10;99.90;;;;;;5052850;28;20059;-80
2022/01/06 04:57:15;;;;;;;11.73;7.28;;;1.10;99.90;;;;;;5050413;28;20130;-80
2022/01/06 04:59:43;;;;;;;9.40;6.85;;;1.10;99.90;;;;;;5051731;28;20053;-81
2022/01/06 05:02:10;;;;;;;9.35;6.07;;;1.10;99.90;;;;;;5035049;28;20045;-80
2022/01/06 05:04:38;;;;;;;12.60;6.22;;;1.10;99.90;;;;;;5053058;28;20428;-80
2022/01/06 05:07:05;;;;;;;8.93;5.97;;;1.10;99.90;;;;;;5050153;28;20049;-79
2022/01/06 05:09:33;;;;;;;10.07;6.25;;;1.10;99.90;;;;;;5050543;28;20483;-80
2022/01/06 05:12:00;;;;;;;8.55;5.57;;;1.10;99.90;;;;;;5050615;28;20048;-80
2022/01/06 05:14:29;;;;;;;9.75;4.97;;;1.10;99.90;;;;;;5052720;28;20045;-79
2022/01/06 05:16:59;;;;;;;6.88;5.65;;;1.10;99.90;;;;;;5044955;28;20073;-79
2022/01/06 05:19:28;;;;;;;6.43;4.57;;;1.00;99.90;;;;;;5084852;28;20102;-76
2022/01/06 05:21:55;;;;;;;5.68;4.20;;;1.00;99.90;;;;;;5085532;28;20052;-80
2022/01/06 05:24:24;;;;;;;8.57;4.85;;;1.00;99.90;;;;;;5051272;28;20079;-78
2022/01/06 05:26:54;;;;;;;7.72;4.97;;;1.00;99.90;;;;;;5051089;28;20061;-78
2022/01/06 05:29:21;;;;;;;7.65;4.15;;;1.00;99.90;;;;;;5051617;28;20368;-80
2022/01/06 05:31:51;;;;;;;3.28;2.97;;;0.90;99.90;;;;;;5047501;28;20080;-80
2022/01/06 05:34:18;;;;;;;3.78;3.38;;;0.90;99.90;;;;;;5043542;28;20045;-78
2022/01/06 05:36:45;;;;;;;4.70;2.88;;;0.90;99.90;;;;;;5052532;28;20095;-78
2022/01/06 05:39:13;;;;;;;7.05;3.15;;;0.80;99.90;;;;;;5052867;28;20041;-79
2022/01/06 05:41:41;;;;;;;5.72;2.70;;;0.80;99.90;;;;;;5034348;28;20134;-80
2022/01/06 05:44:09;;;;;;;3.15;2.85;;;0.80;99.90;;;;;;5049955;28;20052;-77
2022/01/06 05:46:36;;;;;;;5.00;2.80;;;0.80;99.90;;;;;;5051469;28;20127;-78
2022/01/06 05:49:06;;;;;;;4.90;2.83;;;0.80;99.90;;;;;;5049806;28;20051;-76
2022/01/06 05:51:34;;;;;;;4.35;2.72;;;0.80;99.90;;;;;;5051066;28;20144;-84
2022/01/06 05:54:01;;;;;;;3.67;2.70;;;0.80;99.90;;;;;;5050290;28;20394;-85
2022/01/06 05:56:28;;;;;;;3.65;2.65;;;0.80;99.90;;;;;;5051881;28;20466;-81
2022/01/06 05:58:56;;;;;;;3.10;2.35;;;0.80;99.90;;;;;;5051783;28;20045;-79
2022/01/06 06:01:23;;;;;;;4.28;2.55;;;0.80;99.90;;;;;;5050052;28;20501;-79
2022/01/06 06:03:52;;;;;;;4.65;2.50;;;0.80;99.90;;;;;;5050397;28;20460;-82
2022/01/06 06:06:21;;;;;;;2.70;2.50;;;0.80;99.90;;;;;;5050535;28;20092;-80
2022/01/06 06:08:48;;;;;;;7.10;2.92;;;0.90;99.90;;;;;;5066144;28;20546;-81
2022/01/06 06:11:16;;;;;;;5.75;3.03;;;0.80;99.90;;;;;;5049744;28;20037;-81
2022/01/06 06:13:43;;;;;;;5.78;3.05;;;0.80;99.90;;;;;;5051764;28;20493;-77
2022/01/06 06:16:10;;;;;;;5.15;3.20;;;0.80;99.90;;;;;;5050425;28;20131;-78
2022/01/06 06:18:38;;;;;;;3.92;3.47;;;0.80;99.90;;;;;;5046495;28;20049;-78
2022/01/06 06:21:07;;;;;;;6.00;3.63;;;0.80;99.90;;;;;;5038483;28;20045;-79
2022/01/06 06:23:36;;;;;;;4.90;3.33;;;0.90;99.90;;;;;;5049539;28;20505;-78
2022/01/06 06:26:03;;;;;;;5.90;3.72;;;0.90;99.90;;;;;;5048291;28;20452;-86
2022/01/06 06:28:31;;;;;;;6.10;3.40;;;0.80;99.90;;;;;;5047953;28;20081;-84
2022/01/06 06:30:59;;;;;;;8.40;3.75;;;0.90;99.90;;;;;;5045861;28;20077;-82
2022/01/06 06:33:26;;;;;;;7.07;3.65;;;0.80;99.90;;;;;;5049653;28;20140;-83
2022/01/06 06:35:53;;;;;;;7.13;3.85;;;0.80;99.90;;;;;;5045789;28;20063;-82
2022/01/06 06:38:21;;;;;;;6.38;3.40;;;0.90;99.90;;;;;;5049282;28;20056;-78
2022/01/06 06:40:50;;;;;;;5.18;3.70;;;0.80;99.90;;;;;;5048629;28;20045;-80
2022/01/06 06:43:17;;;;;;;7.88;4.13;;;0.80;99.90;;;;;;5050944;28;20045;-82
2022/01/06 06:45:45;;;;;;;11.40;4.55;;;0.80;99.90;;;;;;5049577;28;20091;-83
2022/01/06 06:48:13;;;;;;;6.70;4.50;;;0.80;99.90;;;;;;5049644;28;20130;-79
2022/01/06 06:50:40;;;;;;;11.50;4.47;;;0.80;99.90;;;;;;5049744;28;20052;-80
2022/01/06 06:53:08;;;;;;;5.72;4.32;;;0.80;99.90;;;;;;5050912;28;20041;-78
2022/01/06 06:55:36;;;;;;;4.68;3.83;;;0.80;99.90;;;;;;5048915;28;20426;-77
2022/01/06 06:58:05;;;;;;;4.88;4.07;;;0.80;99.90;;;;;;5048599;28;20041;-77
2022/01/06 07:00:32;;;;;;;5.95;4.15;;;0.80;99.90;;;;;;5046167;28;20048;-80
2022/01/06 07:03:00;;;;;;;7.28;4.57;;;0.80;99.90;;;;;;5049412;28;20049;-79
2022/01/06 07:05:31;;;;;;;7.22;4.60;;;0.80;99.90;;;;;;5081119;28;20484;-81
2022/01/06 07:07:59;;;;;;;8.93;4.80;;;0.80;99.90;;;;;;4983848;28;20054;-80
2022/01/06 07:10:26;;;;;;;7.70;4.85;;;0.80;99.90;;;;;;5035093;28;20053;-79
2022/01/06 07:12:54;;;;;;;7.78;4.80;;;0.80;99.90;;;;;;5049308;28;20052;-81
2022/01/06 07:15:23;;;;;;;7.63;4.25;;;0.80;99.90;;;;;;5065694;28;20053;-80
2022/01/06 07:17:51;;;;;;;9.02;3.88;;;0.80;99.90;;;;;;5049192;28;20520;-78
2022/01/06 07:20:19;;;;;;;8.35;4.75;;;0.80;99.90;;;;;;5050474;28;20060;-78
2022/01/06 07:22:46;;;;;;;9.98;4.97;;;0.80;99.90;;;;;;5048337;28;20457;-79
2022/01/06 07:25:14;;;;;;;6.70;4.82;;;0.80;99.90;;;;;;5047120;28;20144;-80
2022/01/06 07:27:41;;;;;;;5.03;4.15;;;0.90;99.90;;;;;;5050310;28;20459;-79
2022/01/06 07:30:11;;;;;;;6.90;5.07;;;0.90;99.90;;;;;;5049315;28;20102;-81
2022/01/06 07:32:48;;;;;;;5.57;4.47;;;0.90;99.90;;;;;;5050643;28;20044;-79
2022/01/06 07:35:19;;;;;;;13.05;6.43;;;0.90;99.90;;;;;;5052763;28;20045;-79
2022/01/06 07:37:48;;;;;;;9.00;5.85;;;0.90;99.90;;;;;;5054578;28;20531;-78
2022/01/06 07:40:16;;;;;;;13.18;6.78;;;0.90;99.90;;;;;;5050107;28;20505;-81
2022/01/06 07:42:44;;;;;;;9.07;5.68;;;0.90;99.90;;;;;;5051593;28;20045;-79
2022/01/06 07:45:12;;;;;;;11.95;5.65;;;0.90;99.90;;;;;;5050939;28;20106;-80
2022/01/06 07:47:54;;;;;;;6.90;4.07;;;0.90;99.90;;;;;;5052957;28;20041;-78
2022/01/06 07:50:24;;;;;;;6.85;3.80;;;0.90;99.90;;;;;;5052499;28;20071;-80
2022/01/06 07:52:52;;;;;;;6.65;4.00;;;0.90;99.90;;;;;;5044807;28;20056;-81
2022/01/06 07:55:20;;;;;;;10.25;3.70;;;0.90;99.90;;;;;;5053377;28;20520;-79
2022/01/06 07:57:47;;;;;;;4.13;3.13;;;0.90;99.90;;;;;;5049603;28;20048;-78
2022/01/06 08:00:16;;;;;;;4.68;3.45;;;0.90;99.90;;;;;;5051792;28;20513;-77
2022/01/06 08:02:53;;;;;;;6.60;3.13;;;0.90;99.90;;;;;;5064608;28;20145;-81
2022/01/06 08:05:27;;;;;;;7.85;2.90;;;0.90;99.90;;;;;;5050728;28;20049;-79
2022/01/06 08:07:55;;;;;;;4.57;3.05;;;0.90;99.90;;;;;;5049905;28;20528;-81
2022/01/06 08:10:24;;;;;;;8.20;3.72;;;0.90;99.90;;;;;;5047869;28;20087;-77
2022/01/06 08:12:54;;;;;;;5.40;3.33;;;0.90;99.90;;;;;;5047807;28;20049;-77
2022/01/06 08:15:25;;;;;;;7.18;3.20;;;0.90;99.90;;;;;;5052595;28;20106;-77
2022/01/06 08:17:52;;;;;;;6.30;3.05;;;0.90;99.90;;;;;;5050163;28;20055;-80
2022/01/06 08:20:20;;;;;;;8.70;3.67;;;0.90;99.90;;;;;;5050263;28;20069;-80
2022/01/06 08:22:49;;;;;;;5.53;3.03;;;0.90;99.90;;;;;;5049828;28;20049;-82
2022/01/06 08:25:16;;;;;;;7.97;3.83;;;0.90;99.90;;;;;;5049051;28;20056;-81
2022/01/06 08:27:44;;;;;;;10.60;3.30;;;0.90;99.90;;;;;;5052272;28;20310;-81
2022/01/06 08:30:16;;;;;;;4.13;3.10;;;0.90;99.90;;;;;;5049959;28;20084;-78
2022/01/06 08:32:44;;;;;;;7.32;3.47;;;0.90;99.90;;;;;;5052924;28;20440;-78
2022/01/06 08:35:12;;;;;;;6.18;3.60;;;0.90;99.90;;;;;;5053088;28;20417;-81
2022/01/06 08:37:40;;;;;;;6.05;3.45;;;0.90;99.90;;;;;;5048632;28;20055;-81
2022/01/06 08:40:12;;;;;;;5.65;3.65;;;0.90;99.90;;;;;;5079078;28;20600;-78
2022/01/06 08:42:39;;;;;;;5.82;3.60;;;0.90;99.90;;;;;;5053036;28;20501;-77
2022/01/06 08:45:09;;;;;;;9.82;3.90;;;0.90;99.90;;;;;;5050893;28;20080;-77
2022/01/06 08:47:37;;;;;;;8.73;4.43;;;1.00;99.90;;;;;;5048789;28;20068;-76
2022/01/06 08:50:05;;;;;;;4.50;3.60;;;1.00;99.90;;;;;;5047505;28;20049;-77
2022/01/06 08:52:35;;;;;;;7.68;4.00;;;1.10;99.90;;;;;;5050827;28;20045;-75
2022/01/06 08:55:02;;;;;;;7.90;3.65;;;1.10;99.90;;;;;;5082694;28;20076;-76
2022/01/06 08:57:31;;;;;;;6.70;3.75;;;1.10;99.90;;;;;;5052078;28;20055;-76
2022/01/06 08:59:59;;;;;;;8.45;3.92;;;1.10;99.90;;;;;;5078382;28;20080;-76
2022/01/06 09:02:27;;;;;;;3.38;3.08;;;1.20;99.90;;;;;;5049513;28;20053;-79
2022/01/06 09:04:59;;;;;;;7.55;3.70;;;1.20;99.90;;;;;;5068969;28;20060;-77
2022/01/06 09:07:27;;;;;;;6.25;3.67;;;1.20;99.90;;;;;;5047451;28;20439;-77
2022/01/06 09:09:54;;;;;;;7.90;3.65;;;1.20;99.90;;;;;;5049366;28;20045;-77
2022/01/06 09:12:21;;;;;;;6.65;4.63;;;1.20;99.90;;;;;;5047278;28;20075;-77
2022/01/06 09:14:50;;;;;;;8.55;4.78;;;1.30;99.90;;;;;;5047900;28;20049;-76
2022/01/06 09:17:18;;;;;;;7.78;4.82;;;1.20;99.90;;;;;;5070804;28;20048;-77
2022/01/06 09:19:45;;;;;;;8.90;5.68;;;1.20;99.90;;;;;;5051513;28;20052;-78
2022/01/06 09:22:16;;;;;;;10.25;6.20;;;1.20;99.90;;;;;;5050200;28;20527;-77
2022/01/06 09:24:43;;;;;;;13.52;6.80;;;1.20;99.90;;;;;;5051355;28;20049;-77
2022/01/06 09:27:10;;;;;;;12.60;7.30;;;1.20;99.90;;;;;;5048781;28;20098;-79
2022/01/06 09:29:38;;;;;;;13.98;9.40;;;1.30;99.90;;;;;;5066492;28;20679;-79
2022/01/06 09:32:07;;;;;;;18.23;9.63;;;1.20;99.90;;;;;;5050072;28;20049;-78
2022/01/06 09:34:35;;;;;;;23.95;11.20;;;1.30;99.90;;;;;;5051948;28;20075;-77
2022/01/06 09:37:03;;;;;;;19.95;11.55;;;1.30;99.90;;;;;;5050404;28;20041;-78
2022/01/06 09:39:30;;;;;;;22.80;9.85;;;1.30;99.90;;;;;;5051076;28;20485;-77
2022/01/06 09:41:57;;;;;;;14.52;9.48;;;1.30;99.90;;;;;;5050184;28;20135;-77
2022/01/06 09:44:26;;;;;;;17.55;9.30;;;1.30;99.90;;;;;;5049115;28;20041;-78
2022/01/06 09:46:56;;;;;;;13.60;9.55;;;1.30;99.90;;;;;;5033030;28;20095;-77
2022/01/06 09:49:25;;;;;;;13.43;9.30;;;1.30;99.90;;;;;;5049921;28;20049;-78
2022/01/06 09:51:52;;;;;;;13.32;9.55;;;1.30;99.90;;;;;;5051075;28;20600;-79
2022/01/06 09:54:20;;;;;;;16.23;9.90;;;1.30;99.90;;;;;;5049049;28;20055;-77
2022/01/06 09:56:48;;;;;;;15.45;10.15;;;1.30;99.90;;;;;;5049765;28;20079;-78
2022/01/06 09:59:15;;;;;;;14.82;10.82;;;1.30;99.90;;;;;;5050613;28;20076;-75
2022/01/06 10:01:46;;;;;;;18.88;10.82;;;1.30;99.90;;;;;;5049917;28;20501;-77
2022/01/06 10:04:28;;;;;;;18.77;10.75;;;1.30;99.90;;;;;;5050147;28;20053;-76
2022/01/06 10:07:06;;;;;;;15.80;10.90;;;1.30;99.90;;;;;;5050773;28;20126;-78
2022/01/06 10:09:36;;;;;;;16.20;11.38;;;1.30;99.90;;;;;;5048236;28;20428;-76
2022/01/06 10:12:10;;;;;;;17.25;11.00;;;1.30;99.90;;;;;;5043455;28;20131;-76
2022/01/06 10:14:42;;;;;;;14.13;10.07;;;1.30;99.90;;;;;;5049545;28;20045;-76
2022/01/06 10:17:10;;;;;;;17.10;10.50;;;1.20;99.90;;;;;;5050506;28;20041;-76
2022/01/06 10:19:41;;;;;;;18.40;10.80;;;1.20;99.90;;;;;;5051455;28;20415;-78
2022/01/06 10:22:15;;;;;;;14.35;11.07;;;1.10;99.90;;;;;;5049136;28;20053;-78
2022/01/06 10:24:45;;;;;;;20.15;10.20;;;1.10;99.90;;;;;;5049735;28;20493;-78
2022/01/06 10:27:13;;;;;;;19.48;10.63;;;1.10;99.90;;;;;;5047937;28;20099;-79
2022/01/06 10:29:43;;;;;;;15.48;9.95;;;1.10;99.90;;;;;;5050511;28;20490;-77
2022/01/06 10:32:13;;;;;;;14.40;8.43;;;1.10;99.90;;;;;;5048423;28;20049;-77
2022/01/06 10:34:46;;;;;;;14.75;7.22;;;1.00;99.90;;;;;;5055152;28;20654;-76
2022/01/06 10:37:21;;;;;;;10.93;7.50;;;1.00;99.90;;;;;;5050766;28;20414;-78
2022/01/06 10:39:51;;;;;;;8.00;6.50;;;1.00;99.90;;;;;;5048472;28;20155;-77
2022/01/06 10:42:22;;;;;;;8.93;6.18;;;1.00;99.90;;;;;;5049850;28;20232;-77
2022/01/06 10:44:52;;;;;;;11.48;6.72;;;1.00;99.90;;;;;;5043010;28;20067;-77
2022/01/06 10:47:31;;;;;;;11.32;6.57;;;1.00;99.90;;;;;;5050194;28;20052;-76
2022/01/06 10:50:12;;;;;;;8.98;6.03;;;0.90;99.90;;;;;;5048786;28;20043;-77
2022/01/06 10:52:44;;;;;;;8.02;6.68;;;0.90;99.90;;;;;;5039856;28;20076;-76
2022/01/06 10:55:15;;;;;;;11.35;6.50;;;0.90;99.90;;;;;;5048962;28;20083;-76
2022/01/06 10:57:54;;;;;;;12.82;7.20;;;0.80;99.90;;;;;;5044058;28;20059;-76
2022/01/06 11:00:24;;;;;;;8.52;5.57;;;0.80;99.90;;;;;;5048800;28;20045;-81
2022/01/06 11:02:52;;;;;;;7.82;6.13;;;0.70;99.90;;;;;;5072720;28;20084;-80
2022/01/06 11:05:23;;;;;;;8.88;5.80;;;0.60;99.90;;;;;;5065175;28;20126;-79
2022/01/06 11:07:50;;;;;;;10.23;5.30;;;0.60;99.90;;;;;;5044934;28;20048;-79
2022/01/06 11:10:21;;;;;;;7.65;4.93;;;0.60;99.90;;;;;;5048097;28;20145;-79
2022/01/06 11:12:50;;;;;;;8.13;4.50;;;0.60;99.90;;;;;;5048505;28;20084;-79
2022/01/06 11:15:17;;;;;;;8.07;4.57;;;0.50;99.90;;;;;;5049113;28;20057;-80
2022/01/06 11:17:48;;;;;;;4.40;3.95;;;0.40;99.90;;;;;;5039030;28;20578;-80
2022/01/06 11:20:25;;;;;;;5.22;3.90;;;0.40;99.90;;;;;;5048603;28;20553;-78
2022/01/06 11:22:55;;;;;;;8.80;5.03;;;0.40;99.90;;;;;;5046139;28;20424;-81
2022/01/06 11:25:36;;;;;;;8.73;4.85;;;0.40;99.90;;;;;;5048254;28;20067;-79
2022/01/06 11:28:07;;;;;;;7.28;4.68;;;0.40;99.90;;;;;;5046466;28;20044;-81
2022/01/06 11:30:44;;;;;;;6.43;4.43;;;0.40;99.90;;;;;;5047475;28;20045;-81
2022/01/06 11:33:13;;;;;;;5.28;4.68;;;0.50;99.90;;;;;;5080750;28;20416;-81
2022/01/06 11:35:53;;;;;;;7.15;4.47;;;0.40;99.90;;;;;;5044984;28;20114;-81
2022/01/06 11:38:25;;;;;;;7.72;4.85;;;0.40;99.90;;;;;;5047128;28;20124;-80
2022/01/06 11:41:07;;;;;;;9.23;5.60;;;0.50;99.90;;;;;;5049647;28;20072;-81
2022/01/06 11:43:37;;;;;;;9.43;5.25;;;0.50;99.90;;;;;;5047806;28;20136;-80
2022/01/06 11:46:05;;;;;;;9.73;5.13;;;0.50;99.90;;;;;;5046548;28;20053;-83
2022/01/06 11:48:33;;;;;;;7.20;4.70;;;0.50;99.90;;;;;;5038247;28;20053;-81
2022/01/06 11:51:01;;;;;;;9.25;4.93;;;0.50;99.90;;;;;;5051007;28;20142;-80
2022/01/06 11:53:34;;;;;;;7.70;5.40;;;0.40;99.90;;;;;;5048708;28;20111;-79
2022/01/06 11:56:13;;;;;;;7.03;4.88;;;0.40;99.90;;;;;;5063539;28;20045;-79
2022/01/06 11:58:41;;;;;;;9.80;5.10;;;0.40;99.90;;;;;;5049013;28;20117;-80
2022/01/06 12:01:15;;;;;;;8.02;5.18;;;0.40;99.90;;;;;;5049761;28;20123;-81
2022/01/06 12:03:45;;;;;;;8.68;5.72;;;0.40;99.90;;;;;;5048915;28;20049;-80
2022/01/06 12:06:26;;;;;;;7.25;5.13;;;0.40;99.90;;;;;;5048012;28;20147;-83
2022/01/06 12:08:54;;;;;;;6.05;4.97;;;0.30;99.90;;;;;;5045157;28;20067;-80
2022/01/06 12:11:29;;;;;;;9.43;5.38;;;0.40;99.90;;;;;;5048140;28;20079;-79
2022/01/06 12:14:00;;;;;;;7.53;5.28;;;0.30;99.90;;;;;;5046648;28;20475;-80
2022/01/06 12:16:29;;;;;;;5.88;4.82;;;0.30;99.90;;;;;;5049553;28;20144;-81
2022/01/06 12:18:58;;;;;;;6.55;4.45;;;0.30;99.90;;;;;;5050076;28;20071;-82
2022/01/06 12:21:28;;;;;;;6.47;4.60;;;0.30;99.90;;;;;;5034222;28;20055;-80
2022/01/06 12:24:04;;;;;;;9.13;4.90;;;0.30;99.90;;;;;;5052349;28;20079;-82
2022/01/06 12:26:33;;;;;;;4.97;4.40;;;0.40;99.90;;;;;;5053243;28;20501;-81
2022/01/06 12:29:01;;;;;;;6.97;4.43;;;0.30;99.90;;;;;;5053447;28;20476;-82
2022/01/06 12:31:32;;;;;;;7.57;5.10;;;0.30;99.90;;;;;;5050935;28;20152;-80
2022/01/06 12:34:02;;;;;;;12.60;5.72;;;0.30;99.90;;;;;;5051814;28;20045;-80
2022/01/06 12:36:35;;;;;;;8.93;4.90;;;0.30;99.90;;;;;;5052311;28;20131;-79
2022/01/06 12:39:09;;;;;;;6.53;4.40;;;0.30;99.90;;;;;;5053196;28;20053;-80
2022/01/06 12:41:36;;;;;;;5.55;4.57;;;0.40;99.90;;;;;;5050409;28;20350;-80
2022/01/06 12:44:05;;;;;;;7.30;4.72;;;0.30;99.90;;;;;;5053100;28;20045;-82
2022/01/06 12:46:34;;;;;;;6.80;4.50;;;0.30;99.90;;;;;;5052828;28;20090;-79
2022/01/06 12:49:07;;;;;;;8.43;5.38;;;0.30;99.90;;;;;;5052681;28;20571;-81
2022/01/06 12:51:39;;;;;;;5.75;4.68;;;0.20;99.90;;;;;;5049544;28;20045;-79
2022/01/06 12:54:13;;;;;;;6.60;4.93;;;0.20;99.90;;;;;;5052104;28;20056;-80
2022/01/06 12:56:43;;;;;;;9.18;5.13;;;0.20;99.90;;;;;;5052195;28;20052;-80
2022/01/06 12:59:13;;;;;;;12.23;4.95;;;0.10;99.90;;;;;;5051169;28;20048;-81
2022/01/06 13:01:43;;;;;;;9.60;4.80;;;0.10;99.90;;;;;;5050210;28;20072;-79
2022/01/06 13:04:13;;;;;;;5.90;4.38;;;0.10;99.90;;;;;;5052771;28;20045;-81
2022/01/06 13:06:43;;;;;;;7.55;5.03;;;0.00;99.90;;;;;;5052385;28;20670;-79